Time;durP1;ratioP1;P1;durP2;ratioP2;P2;SDS_P1;SDS_P2;PMS_P1;PMS_P2;Temp;Humidity;BMP_temperature;BMP_pressure;BME280_temperature;BME280_humidity;BME280_pressure;Samples;Min_cycle;Max_cycle;Signal;HPM_P1;HPM_P2
2024/02/25 00:02:10;;;;;;;1999.90;999.90;;;;;;;;;;6185431;23;20021;-81
2024/02/25 00:04:36;;;;;;;1999.90;999.90;;;;;;;;;;6185462;23;20017;-84
2024/02/25 00:07:04;;;;;;;1999.90;999.90;;;;;;;;;;6185419;23;20017;-82
2024/02/25 00:09:31;;;;;;;1999.90;999.90;;;;;;;;;;6185521;23;20533;-82
2024/02/25 00:11:57;;;;;;;1999.90;999.90;;;;;;;;;;6185714;23;20092;-81
2024/02/25 00:14:28;;;;;;;1999.90;999.90;;;;;;;;;;6185441;23;20116;-83
2024/02/25 00:16:55;;;;;;;1999.90;999.90;;;;;;;;;;6185434;23;20021;-83
2024/02/25 00:19:21;;;;;;;1999.90;999.90;;;;;;;;;;6185460;23;20023;-82
2024/02/25 00:21:48;;;;;;;1999.90;999.90;;;;;;;;;;6184148;23;20021;-82
2024/02/25 00:25:01;;;;;;;1999.90;999.90;;;;;;;;;;6185469;23;20104;-82
2024/02/25 00:27:29;;;;;;;1999.90;999.90;;;;;;;;;;6185593;23;20101;-82
2024/02/25 00:29:55;;;;;;;1999.90;999.90;;;;;;;;;;6185894;23;20096;-82
2024/02/25 00:32:23;;;;;;;1999.90;999.90;;;;;;;;;;6185867;23;20100;-81
2024/02/25 00:34:49;;;;;;;1999.90;999.90;;;;;;;;;;6185907;23;20039;-81
2024/02/25 00:37:16;;;;;;;1999.90;999.90;;;;;;;;;;6185942;23;20055;-83
2024/02/25 00:39:42;;;;;;;1999.90;999.90;;;;;;;;;;6186672;23;20328;-81
2024/02/25 00:42:09;;;;;;;1999.90;999.90;;;;;;;;;;6188355;23;20048;-82
2024/02/25 00:44:39;;;;;;;1999.90;999.90;;;;;;;;;;6186858;23;20021;-82
2024/02/25 00:47:06;;;;;;;1999.90;999.90;;;;;;;;;;6186820;23;20075;-82
2024/02/25 00:49:33;;;;;;;1999.90;999.90;;;;;;;;;;6187425;23;20017;-82
2024/02/25 00:51:59;;;;;;;1999.90;999.90;;;;;;;;;;6187122;23;20017;-84
2024/02/25 00:54:44;;;;;;;1999.90;999.90;;;;;;;;;;6186969;23;20023;-81
2024/02/25 00:57:10;;;;;;;1999.90;999.90;;;;;;;;;;6187932;23;20017;-81
2024/02/25 00:59:38;;;;;;;1999.90;999.90;;;;;;;;;;6186904;23;20023;-82
2024/02/25 01:02:04;;;;;;;1999.90;999.90;;;;;;;;;;6187121;23;20748;-82
2024/02/25 01:04:31;;;;;;;1999.90;999.90;;;;;;;;;;6187196;23;20017;-82
2024/02/25 01:06:57;;;;;;;1999.90;999.90;;;;;;;;;;6187421;23;20016;-83
2024/02/25 01:09:24;;;;;;;1999.90;999.90;;;;;;;;;;6187082;23;20456;-81
2024/02/25 01:11:51;;;;;;;1999.90;999.90;;;;;;;;;;6185729;23;20021;-84
2024/02/25 01:14:20;;;;;;;1999.90;999.90;;;;;;;;;;6185590;23;20021;-83
2024/02/25 01:16:48;;;;;;;1999.90;999.90;;;;;;;;;;6185414;23;20086;-82
2024/02/25 01:19:17;;;;;;;1999.90;999.90;;;;;;;;;;6185622;23;20025;-84
2024/02/25 01:21:43;;;;;;;1999.90;999.90;;;;;;;;;;6185585;23;20072;-83
2024/02/25 01:24:19;;;;;;;1999.90;999.90;;;;;;;;;;6185358;23;20021;-83
2024/02/25 01:26:45;;;;;;;1999.90;999.90;;;;;;;;;;6185342;23;20028;-83
2024/02/25 01:29:12;;;;;;;1999.90;999.90;;;;;;;;;;6185605;23;20021;-83
2024/02/25 01:31:42;;;;;;;1999.90;999.90;;;;;;;;;;6184671;23;20456;-82
2024/02/25 01:34:10;;;;;;;1999.90;999.90;;;;;;;;;;6185117;23;20021;-83
2024/02/25 01:36:37;;;;;;;1999.90;999.90;;;;;;;;;;6185274;23;20017;-83
2024/02/25 01:39:04;;;;;;;1999.90;999.90;;;;;;;;;;6185592;23;20043;-83
2024/02/25 01:41:31;;;;;;;1999.90;999.90;;;;;;;;;;6184563;23;20025;-84
2024/02/25 01:43:57;;;;;;;1999.90;999.90;;;;;;;;;;6185040;23;20024;-84
2024/02/25 01:46:23;;;;;;;1999.90;999.90;;;;;;;;;;6184884;23;20027;-84
2024/02/25 01:48:51;;;;;;;1999.90;999.90;;;;;;;;;;6184326;23;20023;-84
2024/02/25 01:51:19;;;;;;;1999.90;999.90;;;;;;;;;;6184607;23;20021;-83
2024/02/25 01:53:45;;;;;;;1999.90;999.90;;;;;;;;;;6184869;23;20031;-83
2024/02/25 01:56:12;;;;;;;1999.90;999.90;;;;;;;;;;6184362;23;20348;-84
2024/02/25 01:58:38;;;;;;;1999.90;999.90;;;;;;;;;;6185224;23;20025;-82
2024/02/25 02:01:05;;;;;;;1999.90;999.90;;;;;;;;;;6183931;23;20468;-86
2024/02/25 02:03:32;;;;;;;1999.90;999.90;;;;;;;;;;6184729;23;20052;-84
2024/02/25 02:05:58;;;;;;;1999.90;999.90;;;;;;;;;;6185123;23;20023;-83
2024/02/25 02:08:27;;;;;;;1999.90;999.90;;;;;;;;;;6184583;23;20021;-84
2024/02/25 02:10:53;;;;;;;1999.90;999.90;;;;;;;;;;6184552;23;20017;-83
2024/02/25 02:13:21;;;;;;;1999.90;999.90;;;;;;;;;;6184964;23;20025;-83
2024/02/25 02:15:48;;;;;;;1999.90;999.90;;;;;;;;;;6184975;23;20021;-84
2024/02/25 02:18:16;;;;;;;1999.90;999.90;;;;;;;;;;6185063;23;20021;-83
2024/02/25 02:20:46;;;;;;;1999.90;999.90;;;;;;;;;;6184624;23;20459;-84
2024/02/25 02:23:17;;;;;;;1999.90;999.90;;;;;;;;;;6184709;23;20055;-83
2024/02/25 02:25:44;;;;;;;1999.90;999.90;;;;;;;;;;6184600;23;20459;-84
2024/02/25 02:28:10;;;;;;;1999.90;999.90;;;;;;;;;;6184639;23;20021;-84
2024/02/25 02:30:37;;;;;;;1999.90;999.90;;;;;;;;;;6184597;23;20024;-84
2024/02/25 02:33:04;;;;;;;1999.90;999.90;;;;;;;;;;6184081;23;20471;-83
2024/02/25 02:35:30;;;;;;;1999.90;999.90;;;;;;;;;;6184765;23;20017;-83
2024/02/25 02:37:58;;;;;;;1999.90;999.90;;;;;;;;;;6184380;23;20478;-83
2024/02/25 02:40:25;;;;;;;1999.90;999.90;;;;;;;;;;6184403;23;20017;-83
2024/02/25 02:42:52;;;;;;;1999.90;999.90;;;;;;;;;;6185002;23;20059;-83
2024/02/25 02:45:18;;;;;;;1999.90;999.90;;;;;;;;;;6185206;23;20107;-79
2024/02/25 02:47:45;;;;;;;1999.90;999.90;;;;;;;;;;6184550;23;20028;-81
2024/02/25 02:50:12;;;;;;;1999.90;999.90;;;;;;;;;;6184753;23;20044;-81
2024/02/25 02:52:39;;;;;;;1999.90;999.90;;;;;;;;;;6184105;23;20448;-82
2024/02/25 02:55:08;;;;;;;1999.90;999.90;;;;;;;;;;6184572;23;20067;-82
2024/02/25 02:57:35;;;;;;;1999.90;999.90;;;;;;;;;;6184129;23;20080;-81
2024/02/25 03:00:01;;;;;;;1999.90;999.90;;;;;;;;;;6183913;23;20031;-82
2024/02/25 03:02:27;;;;;;;1999.90;999.90;;;;;;;;;;6184038;23;20024;-81
2024/02/25 03:04:55;;;;;;;1999.90;999.90;;;;;;;;;;6184388;23;20100;-82
2024/02/25 03:07:21;;;;;;;1999.90;999.90;;;;;;;;;;6184444;23;20055;-82
2024/02/25 03:09:48;;;;;;;1999.90;999.90;;;;;;;;;;6184498;23;20023;-82
2024/02/25 03:12:15;;;;;;;1999.90;999.90;;;;;;;;;;6184254;23;20460;-80
2024/02/25 03:14:43;;;;;;;1999.90;999.90;;;;;;;;;;6184018;23;20459;-81
2024/02/25 03:17:09;;;;;;;1999.90;999.90;;;;;;;;;;6184382;23;20757;-81
2024/02/25 03:19:36;;;;;;;1999.90;999.90;;;;;;;;;;6184164;23;20017;-83
2024/02/25 03:22:03;;;;;;;1999.90;999.90;;;;;;;;;;6183459;23;20039;-81
2024/02/25 03:24:29;;;;;;;1999.90;999.90;;;;;;;;;;6183210;23;20032;-82
2024/02/25 03:26:56;;;;;;;1999.90;999.90;;;;;;;;;;6183697;23;20028;-82
2024/02/25 03:29:24;;;;;;;1999.90;999.90;;;;;;;;;;6184807;23;20017;-81
2024/02/25 03:31:50;;;;;;;1999.90;999.90;;;;;;;;;;6184269;23;20039;-82
2024/02/25 03:34:17;;;;;;;1999.90;999.90;;;;;;;;;;6184400;23;20021;-81
2024/02/25 03:36:43;;;;;;;1999.90;999.90;;;;;;;;;;6184587;23;20021;-81
2024/02/25 03:39:10;;;;;;;1999.90;999.90;;;;;;;;;;6184458;23;20021;-84
2024/02/25 03:41:36;;;;;;;1999.90;999.90;;;;;;;;;;6184488;23;20031;-84
2024/02/25 03:44:03;;;;;;;1999.90;999.90;;;;;;;;;;6184340;23;20032;-81
2024/02/25 03:46:31;;;;;;;1999.90;999.90;;;;;;;;;;6184425;23;20024;-82
2024/02/25 03:48:57;;;;;;;1999.90;999.90;;;;;;;;;;6183986;23;20025;-83
2024/02/25 03:51:24;;;;;;;1999.90;999.90;;;;;;;;;;6183782;23;20027;-81
2024/02/25 03:53:53;;;;;;;1999.90;999.90;;;;;;;;;;6183762;23;20025;-81
2024/02/25 03:56:20;;;;;;;1999.90;999.90;;;;;;;;;;6183799;23;20025;-87
2024/02/25 03:58:47;;;;;;;1999.90;999.90;;;;;;;;;;6184023;23;20021;-82
2024/02/25 04:01:13;;;;;;;1999.90;999.90;;;;;;;;;;6184173;23;20336;-82
2024/02/25 04:03:41;;;;;;;1999.90;999.90;;;;;;;;;;6184354;23;20021;-81
2024/02/25 04:06:08;;;;;;;1999.90;999.90;;;;;;;;;;6184387;23;20025;-84
2024/02/25 04:08:34;;;;;;;1999.90;999.90;;;;;;;;;;6184267;23;20021;-82
2024/02/25 04:11:01;;;;;;;1999.90;999.90;;;;;;;;;;6184181;23;20017;-81
2024/02/25 04:13:27;;;;;;;1999.90;999.90;;;;;;;;;;6185121;23;20024;-81
2024/02/25 04:15:54;;;;;;;1999.90;999.90;;;;;;;;;;6186164;23;20017;-82
2024/02/25 04:18:20;;;;;;;1999.90;999.90;;;;;;;;;;6185171;23;20025;-81
2024/02/25 04:20:48;;;;;;;1999.90;999.90;;;;;;;;;;6184331;23;20025;-82
2024/02/25 04:23:15;;;;;;;1999.90;999.90;;;;;;;;;;6185326;23;20475;-82
2024/02/25 04:25:42;;;;;;;1999.90;999.90;;;;;;;;;;6185252;23;20514;-82
2024/02/25 04:28:08;;;;;;;1999.90;999.90;;;;;;;;;;6185101;23;20025;-83
2024/02/25 04:30:35;;;;;;;1999.90;999.90;;;;;;;;;;6185664;23;20027;-81
2024/02/25 04:33:01;;;;;;;1999.90;999.90;;;;;;;;;;6185561;23;20021;-82
2024/02/25 04:35:28;;;;;;;1999.90;999.90;;;;;;;;;;6185095;23;20025;-82
2024/02/25 04:37:56;;;;;;;1999.90;999.90;;;;;;;;;;6185485;23;20028;-82
2024/02/25 04:40:22;;;;;;;1999.90;999.90;;;;;;;;;;6185494;23;20348;-81
2024/02/25 04:42:49;;;;;;;1999.90;999.90;;;;;;;;;;6185397;23;20024;-82
2024/02/25 04:45:15;;;;;;;1999.90;999.90;;;;;;;;;;6185270;23;20727;-81
2024/02/25 04:47:42;;;;;;;1999.90;999.90;;;;;;;;;;6185680;23;20097;-82
2024/02/25 04:50:09;;;;;;;1999.90;999.90;;;;;;;;;;6185825;23;20120;-82
2024/02/25 04:52:45;;;;;;;1999.90;999.90;;;;;;;;;;6185767;23;20031;-82
2024/02/25 04:55:13;;;;;;;1999.90;999.90;;;;;;;;;;6185388;23;20027;-82
2024/02/25 04:57:40;;;;;;;1999.90;999.90;;;;;;;;;;6185569;23;20087;-81
2024/02/25 05:00:07;;;;;;;1999.90;999.90;;;;;;;;;;6185183;23;20095;-82
2024/02/25 05:02:35;;;;;;;1999.90;999.90;;;;;;;;;;6185113;23;20083;-81
2024/02/25 05:05:02;;;;;;;1999.90;999.90;;;;;;;;;;6184880;23;20028;-81
2024/02/25 05:07:28;;;;;;;1999.90;999.90;;;;;;;;;;6185465;23;20029;-81
2024/02/25 05:09:55;;;;;;;1999.90;999.90;;;;;;;;;;6185174;23;20406;-81
2024/02/25 05:12:23;;;;;;;1999.90;999.90;;;;;;;;;;6185409;23;20021;-81
2024/02/25 05:14:50;;;;;;;1999.90;999.90;;;;;;;;;;6185754;23;20048;-80
2024/02/25 05:17:17;;;;;;;1999.90;999.90;;;;;;;;;;6184989;23;20087;-81
2024/02/25 05:19:43;;;;;;;1999.90;999.90;;;;;;;;;;6184912;23;20488;-82
2024/02/25 05:22:10;;;;;;;1999.90;999.90;;;;;;;;;;6185393;23;20024;-80
2024/02/25 05:24:36;;;;;;;1999.90;999.90;;;;;;;;;;6184691;23;20017;-81
2024/02/25 05:27:03;;;;;;;1999.90;999.90;;;;;;;;;;6185136;23;20021;-82
2024/02/25 05:29:31;;;;;;;1999.90;999.90;;;;;;;;;;6184881;23;20321;-81
2024/02/25 05:31:57;;;;;;;1999.90;999.90;;;;;;;;;;6185528;23;20018;-81
2024/02/25 05:34:24;;;;;;;1999.90;999.90;;;;;;;;;;6184784;23;20021;-82
2024/02/25 05:36:50;;;;;;;1999.90;999.90;;;;;;;;;;6184837;23;20023;-84
2024/02/25 05:39:17;;;;;;;1999.90;999.90;;;;;;;;;;6185072;23;20017;-81
2024/02/25 05:41:43;;;;;;;1999.90;999.90;;;;;;;;;;6184907;23;20017;-82
2024/02/25 05:44:11;;;;;;;1999.90;999.90;;;;;;;;;;6185239;23;20025;-81
2024/02/25 05:46:39;;;;;;;1999.90;999.90;;;;;;;;;;6184748;23;20083;-82
2024/02/25 05:49:06;;;;;;;1999.90;999.90;;;;;;;;;;6185092;23;20021;-81
2024/02/25 05:51:32;;;;;;;1999.90;999.90;;;;;;;;;;6185009;23;20084;-82
2024/02/25 05:53:59;;;;;;;1999.90;999.90;;;;;;;;;;6184687;23;20077;-82
2024/02/25 05:56:26;;;;;;;1999.90;999.90;;;;;;;;;;6185168;23;20023;-81
2024/02/25 05:58:53;;;;;;;1999.90;999.90;;;;;;;;;;6184593;23;20017;-80
2024/02/25 06:01:19;;;;;;;1999.90;999.90;;;;;;;;;;6185010;23;20100;-81
2024/02/25 06:03:47;;;;;;;1999.90;999.90;;;;;;;;;;6184495;23;20031;-81
2024/02/25 06:06:14;;;;;;;1999.90;999.90;;;;;;;;;;6185009;23;20052;-80
2024/02/25 06:08:40;;;;;;;1999.90;999.90;;;;;;;;;;6184703;23;20025;-81
2024/02/25 06:11:07;;;;;;;1999.90;999.90;;;;;;;;;;6185286;23;20017;-80
2024/02/25 06:13:33;;;;;;;1999.90;999.90;;;;;;;;;;6185367;23;20276;-81
2024/02/25 06:15:59;;;;;;;1999.90;999.90;;;;;;;;;;6187300;23;20017;-87
2024/02/25 06:18:26;;;;;;;1999.90;999.90;;;;;;;;;;6200144;23;20056;-82
2024/02/25 06:20:54;;;;;;;1999.90;999.90;;;;;;;;;;6187863;23;20021;-81
2024/02/25 06:23:20;;;;;;;1999.90;999.90;;;;;;;;;;6188493;23;20051;-82
2024/02/25 06:25:47;;;;;;;1999.90;999.90;;;;;;;;;;6184718;23;20035;-81
2024/02/25 06:28:13;;;;;;;1999.90;999.90;;;;;;;;;;6184519;23;20021;-81
2024/02/25 06:30:40;;;;;;;1999.90;999.90;;;;;;;;;;6184569;23;20021;-80
2024/02/25 06:33:06;;;;;;;1999.90;999.90;;;;;;;;;;6184461;23;20018;-81
2024/02/25 06:35:33;;;;;;;1999.90;999.90;;;;;;;;;;6184689;23;20100;-81
2024/02/25 06:38:02;;;;;;;1999.90;999.90;;;;;;;;;;6183560;23;20035;-81
2024/02/25 06:40:28;;;;;;;1999.90;999.90;;;;;;;;;;6183377;23;20016;-81
2024/02/25 06:42:54;;;;;;;1999.90;999.90;;;;;;;;;;6183439;23;20027;-80
2024/02/25 06:45:22;;;;;;;1999.90;999.90;;;;;;;;;;6183434;23;20021;-81
2024/02/25 06:47:49;;;;;;;1999.90;999.90;;;;;;;;;;6183605;23;20028;-80
2024/02/25 06:50:15;;;;;;;1999.90;999.90;;;;;;;;;;6183465;23;20017;-80
2024/02/25 06:52:42;;;;;;;1999.90;999.90;;;;;;;;;;6183664;23;20101;-80
2024/02/25 06:55:10;;;;;;;1999.90;999.90;;;;;;;;;;6184432;23;20021;-81
2024/02/25 06:57:36;;;;;;;1999.90;999.90;;;;;;;;;;6184410;23;20027;-80
2024/02/25 07:00:05;;;;;;;1999.90;999.90;;;;;;;;;;6183747;23;20027;-80
2024/02/25 07:02:32;;;;;;;1999.90;999.90;;;;;;;;;;6184586;23;20096;-81
2024/02/25 07:04:58;;;;;;;1999.90;999.90;;;;;;;;;;6183855;23;20343;-81
2024/02/25 07:07:25;;;;;;;1999.90;999.90;;;;;;;;;;6184408;23;20096;-83
2024/02/25 07:09:56;;;;;;;1999.90;999.90;;;;;;;;;;6184056;23;20096;-81
2024/02/25 07:12:24;;;;;;;1999.90;999.90;;;;;;;;;;6184002;23;20452;-81
2024/02/25 07:14:50;;;;;;;1999.90;999.90;;;;;;;;;;6184177;23;20043;-81
2024/02/25 07:17:17;;;;;;;1999.90;999.90;;;;;;;;;;6183739;23;20466;-82
2024/02/25 07:19:44;;;;;;;1999.90;999.90;;;;;;;;;;6184565;23;20096;-81
2024/02/25 07:22:10;;;;;;;1999.90;999.90;;;;;;;;;;6184594;23;20075;-82
2024/02/25 07:24:39;;;;;;;1999.90;999.90;;;;;;;;;;6184222;23;20032;-84
2024/02/25 07:27:06;;;;;;;1999.90;999.90;;;;;;;;;;6184338;23;20029;-83
2024/02/25 07:29:34;;;;;;;1999.90;999.90;;;;;;;;;;6183719;23;20025;-83
2024/02/25 07:32:00;;;;;;;1999.90;999.90;;;;;;;;;;6184121;23;20017;-84
2024/02/25 07:34:27;;;;;;;1999.90;999.90;;;;;;;;;;6184406;23;20028;-82
2024/02/25 07:36:53;;;;;;;1999.90;999.90;;;;;;;;;;6184078;23;20464;-82
2024/02/25 07:39:20;;;;;;;1999.90;999.90;;;;;;;;;;6184159;23;20024;-82
2024/02/25 07:41:47;;;;;;;1999.90;999.90;;;;;;;;;;6184059;23;20023;-82
2024/02/25 07:44:14;;;;;;;1999.90;999.90;;;;;;;;;;6184240;23;20456;-85
2024/02/25 07:46:42;;;;;;;1999.90;999.90;;;;;;;;;;6184809;23;20055;-82
2024/02/25 07:49:08;;;;;;;1999.90;999.90;;;;;;;;;;6183864;23;20025;-83
2024/02/25 07:51:35;;;;;;;1999.90;999.90;;;;;;;;;;6184419;23;20017;-83
2024/02/25 07:54:08;;;;;;;1999.90;999.90;;;;;;;;;;6184657;23;20017;-82
2024/02/25 07:56:34;;;;;;;1999.90;999.90;;;;;;;;;;6183749;23;20021;-83
2024/02/25 07:59:01;;;;;;;1999.90;999.90;;;;;;;;;;6183549;23;20028;-82
2024/02/25 08:01:27;;;;;;;1999.90;999.90;;;;;;;;;;6183716;23;20027;-82
2024/02/25 08:03:55;;;;;;;1999.90;999.90;;;;;;;;;;6184026;23;20021;-81
2024/02/25 08:06:25;;;;;;;1999.90;999.90;;;;;;;;;;6183892;23;20021;-82
2024/02/25 08:08:52;;;;;;;1999.90;999.90;;;;;;;;;;6183618;23;20452;-82
2024/02/25 08:11:18;;;;;;;1999.90;999.90;;;;;;;;;;6183207;23;20127;-82
2024/02/25 08:13:45;;;;;;;1999.90;999.90;;;;;;;;;;6182917;23;20021;-82
2024/02/25 08:16:11;;;;;;;1999.90;999.90;;;;;;;;;;6183970;23;20053;-82
2024/02/25 08:18:38;;;;;;;1999.90;999.90;;;;;;;;;;6183806;23;20116;-82
2024/02/25 08:21:06;;;;;;;1999.90;999.90;;;;;;;;;;6183762;23;20028;-82
2024/02/25 08:23:32;;;;;;;1999.90;999.90;;;;;;;;;;6183429;23;20466;-82
2024/02/25 08:25:59;;;;;;;1999.90;999.90;;;;;;;;;;6183861;23;20100;-82
2024/02/25 08:28:25;;;;;;;1999.90;999.90;;;;;;;;;;6183440;23;20738;-82
2024/02/25 08:30:52;;;;;;;1999.90;999.90;;;;;;;;;;6183154;23;20021;-82
2024/02/25 08:33:18;;;;;;;1999.90;999.90;;;;;;;;;;6183454;23;20340;-83
2024/02/25 08:35:45;;;;;;;1999.90;999.90;;;;;;;;;;6183668;23;20104;-81
2024/02/25 08:38:13;;;;;;;1999.90;999.90;;;;;;;;;;6183775;23;20309;-82
2024/02/25 08:40:39;;;;;;;1999.90;999.90;;;;;;;;;;6183526;23;20100;-82
2024/02/25 08:43:06;;;;;;;1999.90;999.90;;;;;;;;;;6184084;23;20321;-83
2024/02/25 08:45:32;;;;;;;1999.90;999.90;;;;;;;;;;6183341;23;20470;-82
2024/02/25 08:48:00;;;;;;;1999.90;999.90;;;;;;;;;;6183620;23;20531;-84
2024/02/25 08:50:27;;;;;;;1999.90;999.90;;;;;;;;;;6184148;23;20018;-82
2024/02/25 08:53:14;;;;;;;1999.90;999.90;;;;;;;;;;6183679;23;20067;-82
2024/02/25 08:55:41;;;;;;;1999.90;999.90;;;;;;;;;;6183767;23;20029;-82
2024/02/25 08:58:07;;;;;;;1999.90;999.90;;;;;;;;;;6183350;23;20027;-82
2024/02/25 09:00:34;;;;;;;1999.90;999.90;;;;;;;;;;6184634;23;20049;-84
2024/02/25 09:03:00;;;;;;;1999.90;999.90;;;;;;;;;;6184780;23;20043;-84
2024/02/25 09:05:27;;;;;;;1999.90;999.90;;;;;;;;;;6184388;23;20499;-81
2024/02/25 09:07:54;;;;;;;1999.90;999.90;;;;;;;;;;6185221;23;20395;-85
2024/02/25 09:10:22;;;;;;;1999.90;999.90;;;;;;;;;;6183824;23;20021;-83
2024/02/25 09:12:49;;;;;;;1999.90;999.90;;;;;;;;;;6183032;23;20468;-82
2024/02/25 09:15:16;;;;;;;1999.90;999.90;;;;;;;;;;6183644;23;20029;-83
2024/02/25 09:17:43;;;;;;;1999.90;999.90;;;;;;;;;;6183133;23;20021;-83
2024/02/25 09:20:10;;;;;;;1999.90;999.90;;;;;;;;;;6182890;23;20456;-83
2024/02/25 09:22:37;;;;;;;1999.90;999.90;;;;;;;;;;6183426;23;20052;-83
2024/02/25 09:25:04;;;;;;;1999.90;999.90;;;;;;;;;;6183734;23;20020;-83
2024/02/25 09:27:32;;;;;;;1999.90;999.90;;;;;;;;;;6183884;23;20021;-82
2024/02/25 09:29:58;;;;;;;1999.90;999.90;;;;;;;;;;6183627;23;20021;-82
2024/02/25 09:32:25;;;;;;;1999.90;999.90;;;;;;;;;;6183925;23;20073;-84
2024/02/25 09:34:51;;;;;;;1999.90;999.90;;;;;;;;;;6183146;23;20021;-83
2024/02/25 09:37:18;;;;;;;1999.90;999.90;;;;;;;;;;6183581;23;20017;-83
2024/02/25 09:39:47;;;;;;;1999.90;999.90;;;;;;;;;;6182393;23;20021;-84
2024/02/25 09:42:13;;;;;;;1999.90;999.90;;;;;;;;;;6182415;23;20025;-83
2024/02/25 09:44:41;;;;;;;1999.90;999.90;;;;;;;;;;6182288;23;20056;-83
2024/02/25 09:47:11;;;;;;;1999.90;999.90;;;;;;;;;;6183183;23;20048;-83
2024/02/25 09:49:39;;;;;;;1999.90;999.90;;;;;;;;;;6182921;23;20048;-84
2024/02/25 09:52:09;;;;;;;1999.90;999.90;;;;;;;;;;6183351;23;20021;-83
2024/02/25 09:54:36;;;;;;;1999.90;999.90;;;;;;;;;;6182297;23;20398;-85
2024/02/25 09:57:03;;;;;;;1999.90;999.90;;;;;;;;;;6182710;23;20025;-82
2024/02/25 09:59:29;;;;;;;1999.90;999.90;;;;;;;;;;6182978;23;20459;-84
2024/02/25 10:01:57;;;;;;;1999.90;999.90;;;;;;;;;;6183650;23;20021;-82
2024/02/25 10:04:26;;;;;;;1999.90;999.90;;;;;;;;;;6183187;23;20032;-82
2024/02/25 10:06:52;;;;;;;1999.90;999.90;;;;;;;;;;6183323;23;20035;-83
2024/02/25 10:09:28;;;;;;;1999.90;999.90;;;;;;;;;;6183296;23;20108;-83
2024/02/25 10:11:54;;;;;;;1999.90;999.90;;;;;;;;;;6182648;23;20028;-84
2024/02/25 10:14:21;;;;;;;1999.90;999.90;;;;;;;;;;6183678;23;20076;-82
2024/02/25 10:17:01;;;;;;;1999.90;999.90;;;;;;;;;;6183727;23;20072;-82
2024/02/25 10:19:28;;;;;;;1999.90;999.90;;;;;;;;;;6184471;23;20033;-83
2024/02/25 10:22:04;;;;;;;1999.90;999.90;;;;;;;;;;6184242;23;20049;-82
2024/02/25 10:24:47;;;;;;;1999.90;999.90;;;;;;;;;;6184328;23;20100;-84
2024/02/25 10:27:14;;;;;;;1999.90;999.90;;;;;;;;;;6183751;23;20092;-84
2024/02/25 10:29:51;;;;;;;1999.90;999.90;;;;;;;;;;6184011;23;20025;-83
2024/02/25 10:32:26;;;;;;;1999.90;999.90;;;;;;;;;;6184075;23;20479;-86
2024/02/25 10:34:54;;;;;;;1999.90;999.90;;;;;;;;;;6183067;23;20552;-82
2024/02/25 10:37:22;;;;;;;1999.90;999.90;;;;;;;;;;6184581;23;20052;-83
2024/02/25 10:39:53;;;;;;;1999.90;999.90;;;;;;;;;;6183699;23;20027;-82
2024/02/25 10:42:23;;;;;;;1999.90;999.90;;;;;;;;;;6184587;23;20057;-83
2024/02/25 10:44:50;;;;;;;1999.90;999.90;;;;;;;;;;6183643;23;20032;-83
2024/02/25 10:47:16;;;;;;;1999.90;999.90;;;;;;;;;;6183312;23;20023;-86
2024/02/25 10:49:44;;;;;;;1999.90;999.90;;;;;;;;;;6183017;23;20100;-85
2024/02/25 10:52:12;;;;;;;1999.90;999.90;;;;;;;;;;6183542;23;20043;-83
2024/02/25 10:54:46;;;;;;;1999.90;999.90;;;;;;;;;;6183506;23;20020;-83
2024/02/25 10:57:14;;;;;;;1999.90;999.90;;;;;;;;;;6183895;23;20033;-83
2024/02/25 10:59:41;;;;;;;1999.90;999.90;;;;;;;;;;6184431;23;20108;-83
2024/02/25 11:02:08;;;;;;;1999.90;999.90;;;;;;;;;;6184188;23;20017;-84
2024/02/25 11:04:35;;;;;;;1999.90;999.90;;;;;;;;;;6184229;23;20344;-84
2024/02/25 11:07:05;;;;;;;1999.90;999.90;;;;;;;;;;6184117;23;20115;-83
2024/02/25 11:09:32;;;;;;;1999.90;999.90;;;;;;;;;;6184245;23;20021;-83
2024/02/25 11:12:13;;;;;;;1999.90;999.90;;;;;;;;;;6183594;23;20055;-83
2024/02/25 11:14:48;;;;;;;1999.90;999.90;;;;;;;;;;6183488;23;20025;-82
2024/02/25 11:17:16;;;;;;;1999.90;999.90;;;;;;;;;;6183266;23;20436;-82
2024/02/25 11:19:42;;;;;;;1999.90;999.90;;;;;;;;;;6183967;23;20024;-82
2024/02/25 11:22:10;;;;;;;1999.90;999.90;;;;;;;;;;6183095;23;20017;-83
2024/02/25 11:24:47;;;;;;;1999.90;999.90;;;;;;;;;;6183241;23;20459;-83
2024/02/25 11:27:13;;;;;;;1999.90;999.90;;;;;;;;;;6183596;23;20021;-83
2024/02/25 11:29:41;;;;;;;1999.90;999.90;;;;;;;;;;6183442;23;20119;-82
2024/02/25 11:32:07;;;;;;;1999.90;999.90;;;;;;;;;;6184043;23;20017;-84
2024/02/25 11:34:35;;;;;;;1999.90;999.90;;;;;;;;;;6183450;23;20471;-85
2024/02/25 11:37:03;;;;;;;1999.90;999.90;;;;;;;;;;6183903;23;20021;-83
2024/02/25 11:39:32;;;;;;;1999.90;999.90;;;;;;;;;;6184417;23;20021;-85
2024/02/25 11:42:01;;;;;;;1999.90;999.90;;;;;;;;;;6183477;23;20462;-82
2024/02/25 11:44:29;;;;;;;1999.90;999.90;;;;;;;;;;6183802;23;20096;-83
2024/02/25 11:46:57;;;;;;;1999.90;999.90;;;;;;;;;;6183163;23;20518;-84
2024/02/25 11:49:24;;;;;;;1999.90;999.90;;;;;;;;;;6182997;23;20028;-84
2024/02/25 11:51:50;;;;;;;1999.90;999.90;;;;;;;;;;6183734;23;20021;-83
2024/02/25 11:54:17;;;;;;;1999.90;999.90;;;;;;;;;;6183852;23;20021;-83
2024/02/25 11:56:45;;;;;;;1999.90;999.90;;;;;;;;;;6183687;23;20048;-84
2024/02/25 11:59:12;;;;;;;1999.90;999.90;;;;;;;;;;6182997;23;20021;-84
2024/02/25 12:01:39;;;;;;;1999.90;999.90;;;;;;;;;;6183410;23;20022;-84
2024/02/25 12:04:06;;;;;;;1999.90;999.90;;;;;;;;;;6182947;23;20076;-83
2024/02/25 12:06:34;;;;;;;1999.90;999.90;;;;;;;;;;6183003;23;20021;-84
2024/02/25 12:09:00;;;;;;;1999.90;999.90;;;;;;;;;;6183687;23;20052;-83
2024/02/25 12:11:27;;;;;;;1999.90;999.90;;;;;;;;;;6183665;23;20017;-84
2024/02/25 12:14:02;;;;;;;1999.90;999.90;;;;;;;;;;6183903;23;20017;-85
2024/02/25 12:16:29;;;;;;;1999.90;999.90;;;;;;;;;;6183611;23;20021;-84
2024/02/25 12:18:56;;;;;;;1999.90;999.90;;;;;;;;;;6182216;23;20032;-85
2024/02/25 12:21:23;;;;;;;1999.90;999.90;;;;;;;;;;6181856;23;20059;-84
2024/02/25 12:23:50;;;;;;;1999.90;999.90;;;;;;;;;;6182852;23;20021;-84
2024/02/25 12:26:16;;;;;;;1999.90;999.90;;;;;;;;;;6181972;23;20021;-83
2024/02/25 12:28:43;;;;;;;1999.90;999.90;;;;;;;;;;6183313;23;20444;-84
2024/02/25 12:31:11;;;;;;;1999.90;999.90;;;;;;;;;;6184033;23;20023;-84
2024/02/25 12:33:37;;;;;;;1999.90;999.90;;;;;;;;;;6183742;23;20331;-83
2024/02/25 12:36:05;;;;;;;1999.90;999.90;;;;;;;;;;6185795;23;20032;-83
2024/02/25 12:38:32;;;;;;;1999.90;999.90;;;;;;;;;;6185921;23;20021;-84
2024/02/25 12:41:01;;;;;;;1999.90;999.90;;;;;;;;;;6185828;23;20021;-83
2024/02/25 12:43:29;;;;;;;1999.90;999.90;;;;;;;;;;6185956;23;20039;-84
2024/02/25 12:45:55;;;;;;;1999.90;999.90;;;;;;;;;;6185597;23;20100;-83
2024/02/25 12:48:23;;;;;;;1999.90;999.90;;;;;;;;;;6185241;23;20072;-84
2024/02/25 12:50:50;;;;;;;1999.90;999.90;;;;;;;;;;6185742;23;20017;-83
2024/02/25 12:53:16;;;;;;;1999.90;999.90;;;;;;;;;;6184711;23;20025;-87
2024/02/25 12:55:42;;;;;;;1999.90;999.90;;;;;;;;;;6184590;23;20198;-84
2024/02/25 12:58:09;;;;;;;1999.90;999.90;;;;;;;;;;6185317;23;20021;-83
2024/02/25 13:00:36;;;;;;;1999.90;999.90;;;;;;;;;;6185249;23;20106;-86
2024/02/25 13:03:02;;;;;;;1999.90;999.90;;;;;;;;;;6185226;23;20021;-83
2024/02/25 13:05:32;;;;;;;1999.90;999.90;;;;;;;;;;6185291;23;20024;-83
2024/02/25 13:07:59;;;;;;;1999.90;999.90;;;;;;;;;;6185120;23;20470;-84
2024/02/25 13:10:26;;;;;;;1999.90;999.90;;;;;;;;;;6185589;23;20017;-82
2024/02/25 13:12:52;;;;;;;1999.90;999.90;;;;;;;;;;6184447;23;20021;-82
2024/02/25 13:15:19;;;;;;;1999.90;999.90;;;;;;;;;;6184160;23;20084;-81
2024/02/25 13:17:45;;;;;;;1999.90;999.90;;;;;;;;;;6183804;23;20021;-80
2024/02/25 13:20:14;;;;;;;1999.90;999.90;;;;;;;;;;6183949;23;20021;-81
2024/02/25 13:22:42;;;;;;;1999.90;999.90;;;;;;;;;;6184463;23;20029;-82
2024/02/25 13:25:09;;;;;;;1999.90;999.90;;;;;;;;;;6184553;23;20017;-78
2024/02/25 13:27:35;;;;;;;1999.90;999.90;;;;;;;;;;6184959;23;20419;-79
2024/02/25 13:30:02;;;;;;;1999.90;999.90;;;;;;;;;;6184070;23;20470;-80
2024/02/25 13:32:29;;;;;;;1999.90;999.90;;;;;;;;;;6184247;23;20049;-81
2024/02/25 13:34:56;;;;;;;1999.90;999.90;;;;;;;;;;6184277;23;20025;-81
2024/02/25 13:37:23;;;;;;;1999.90;999.90;;;;;;;;;;6184729;23;20032;-79
2024/02/25 13:39:51;;;;;;;1999.90;999.90;;;;;;;;;;6184318;23;20017;-81
2024/02/25 13:42:17;;;;;;;1999.90;999.90;;;;;;;;;;6184223;23;20021;-80
2024/02/25 13:44:44;;;;;;;1999.90;999.90;;;;;;;;;;6184385;23;20033;-80